Time;durP1;ratioP1;P1;durP2;ratioP2;P2;SDS_P1;SDS_P2;PMS_P1;PMS_P2;Temp;Humidity;BMP_temperature;BMP_pressure;BME280_temperature;BME280_humidity;BME280_pressure;Samples;Min_cycle;Max_cycle;Signal;HPM_P1;HPM_P2
2023/07/12 00:00:34;;;;;;;40.08;7.13;;;;;;;-142.57;42.51;115900.28;6308262;22;20333;-82
2023/07/12 00:02:59;;;;;;;37.42;7.22;;;;;;;-142.57;42.55;115900.28;6308173;22;20077;-83
2023/07/12 00:05:28;;;;;;;47.13;5.93;;;;;;;-142.57;42.95;115900.28;6308514;22;20070;-83
2023/07/12 00:07:56;;;;;;;38.85;7.05;;;;;;;-142.57;42.84;115900.28;6308270;22;20018;-81
2023/07/12 00:10:28;;;;;;;33.88;7.15;;;;;;;-142.57;42.93;115900.28;6280903;22;20010;-84
2023/07/12 00:12:54;;;;;;;42.30;6.03;;;;;;;-142.57;42.75;115900.28;6307787;22;20030;-81
2023/07/12 00:15:26;;;;;;;36.83;6.72;;;;;;;-142.57;42.75;115900.28;6307777;22;20418;-83
2023/07/12 00:17:53;;;;;;;37.92;7.32;;;;;;;-142.57;43.17;115900.28;6308261;22;20019;-82
2023/07/12 00:20:29;;;;;;;37.47;6.15;;;;;;;-142.57;43.10;115900.28;6280958;22;20011;-83
2023/07/12 00:22:56;;;;;;;51.95;7.68;;;;;;;-142.57;43.18;115900.28;6308286;22;20021;-83
2023/07/12 00:25:24;;;;;;;39.75;7.45;;;;;;;-142.57;43.51;115900.28;6308187;22;20003;-82
2023/07/12 00:27:50;;;;;;;46.60;7.28;;;;;;;-142.57;43.96;115900.28;6281433;22;20490;-84
2023/07/12 00:30:25;;;;;;;48.50;7.55;;;;;;;-142.57;43.89;115900.28;6282176;22;20007;-81
2023/07/12 00:32:55;;;;;;;40.90;7.13;;;;;;;-142.57;43.66;115900.28;6308371;22;20007;-83
2023/07/12 00:35:25;;;;;;;51.08;6.97;;;;;;;-142.57;43.51;115900.28;6308112;22;20086;-82
2023/07/12 00:37:53;;;;;;;42.83;7.53;;;;;;;-142.57;43.44;115900.28;6308305;22;20018;-81
2023/07/12 00:40:41;;;;;;;44.25;7.53;;;;;;;-142.57;43.89;115900.28;6308946;22;20004;-82
2023/07/12 00:43:35;;;;;;;34.00;6.57;;;;;;;-142.57;44.58;115900.28;6281395;22;20023;-83
2023/07/12 00:46:25;;;;;;;44.67;7.10;;;;;;;-142.57;44.07;115900.28;6309335;22;20013;-83
2023/07/12 00:48:53;;;;;;;44.45;7.25;;;;;;;-142.57;43.69;115900.28;6281707;22;20011;-84
2023/07/12 00:51:27;;;;;;;47.92;7.20;;;;;;;-142.57;43.73;115900.28;6308723;22;20006;-83
2023/07/12 00:53:56;;;;;;;57.13;6.72;;;;;;;-142.57;43.71;115900.28;6308457;22;20003;-82
2023/07/12 00:56:22;;;;;;;37.67;7.28;;;;;;;-142.57;44.23;115900.28;6309108;22;20017;-82
2023/07/12 00:58:53;;;;;;;48.28;7.22;;;;;;;-142.57;44.05;115900.28;6282009;22;20412;-81
2023/07/12 01:01:20;;;;;;;49.42;7.38;;;;;;;-142.57;44.57;115900.28;6282422;22;20078;-83
2023/07/12 01:03:46;;;;;;;46.50;7.47;;;;;;;-142.57;44.80;115900.28;6309346;22;20012;-83
2023/07/12 01:06:16;;;;;;;33.58;6.22;;;;;;;-142.57;44.13;115900.28;6309593;22;20018;-83
2023/07/12 01:08:43;;;;;;;46.38;7.07;;;;;;;-142.57;43.99;115900.28;6309959;22;20012;-83
2023/07/12 01:11:15;;;;;;;36.55;6.95;;;;;;;-142.57;43.83;115900.28;6309694;22;20010;-83
2023/07/12 01:13:43;;;;;;;47.30;7.75;;;;;;;-142.57;43.89;115900.28;6283322;22;20018;-85
2023/07/12 01:16:10;;;;;;;50.10;7.75;;;;;;;-142.57;44.36;115900.28;6311690;22;20430;-87
2023/07/12 01:18:36;;;;;;;48.55;6.85;;;;;;;-142.57;44.26;115900.28;6309988;22;20007;-84
2023/07/12 01:21:20;;;;;;;42.78;6.88;;;;;;;-142.57;44.84;115900.28;6312043;22;19999;-85
2023/07/12 01:23:46;;;;;;;49.63;6.57;;;;;;;-142.57;45.60;115900.28;6312540;22;20012;-86
2023/07/12 01:26:17;;;;;;;40.92;6.88;;;;;;;-142.57;45.90;115900.28;6321202;22;20015;-82
2023/07/12 01:28:44;;;;;;;42.42;6.82;;;;;;;-142.57;45.69;115900.28;6315550;22;20018;-81
2023/07/12 01:31:09;;;;;;;37.92;7.13;;;;;;;-142.57;45.71;115900.28;6311556;22;20447;-82
2023/07/12 01:33:35;;;;;;;53.22;7.18;;;;;;;-142.57;45.96;115900.28;6308963;22;20106;-82
2023/07/12 01:36:00;;;;;;;39.97;7.15;;;;;;;-142.57;46.46;115900.28;6282001;22;20022;-83
2023/07/12 01:38:26;;;;;;;38.97;5.82;;;;;;;-142.57;46.52;115900.28;6309086;22;20085;-82
2023/07/12 01:40:51;;;;;;;40.30;7.57;;;;;;;-142.57;46.68;115900.28;6282284;22;20014;-84
2023/07/12 01:43:17;;;;;;;31.75;6.22;;;;;;;-142.57;46.85;115900.28;6311210;22;20039;-84
2023/07/12 01:45:42;;;;;;;35.92;6.43;;;;;;;-142.57;47.53;115900.28;6283618;22;20039;-84
2023/07/12 01:48:09;;;;;;;50.30;7.05;;;;;;;-142.57;47.59;115900.28;6310623;22;20063;-83
2023/07/12 01:50:35;;;;;;;58.83;7.55;;;;;;;-142.57;48.15;115900.28;6312588;22;20010;-84
2023/07/12 01:53:01;;;;;;;43.60;7.20;;;;;;;-142.57;48.43;115900.28;6310043;22;20045;-86
2023/07/12 01:55:27;;;;;;;34.20;6.25;;;;;;;-142.57;48.55;115900.28;6282759;22;20042;-85
2023/07/12 01:57:52;;;;;;;42.47;7.53;;;;;;;-142.57;48.17;115900.28;6319731;22;20083;-84
2023/07/12 02:00:18;;;;;;;34.60;6.47;;;;;;;-142.57;47.63;115900.28;6323496;22;20003;-85
2023/07/12 02:02:44;;;;;;;39.90;6.50;;;;;;;-142.57;47.77;115900.28;6282548;22;20560;-83
2023/07/12 02:05:10;;;;;;;48.85;6.82;;;;;;;-142.57;47.95;115900.28;6257440;22;20007;-84
2023/07/12 02:07:35;;;;;;;52.83;7.32;;;;;;;-142.57;47.92;115900.28;6309979;22;20007;-85
2023/07/12 02:10:11;;;;;;;47.17;7.50;;;;;;;-142.57;48.88;115900.28;6311994;22;20081;-81
2023/07/12 02:12:39;;;;;;;51.10;7.57;;;;;;;-142.57;52.39;115900.28;6295438;22;20125;-83
2023/07/12 02:15:05;;;;;;;45.55;7.32;;;;;;;-142.57;53.57;115900.28;6326544;22;20355;-81
2023/07/12 02:17:31;;;;;;;45.15;7.95;;;;;;;-142.57;56.39;115900.28;6303600;22;20004;-84
2023/07/12 02:19:57;;;;;;;33.30;7.78;;;;;;;-142.57;59.91;115900.28;6318298;22;20014;-81
2023/07/12 02:22:23;;;;;;;36.38;7.55;;;;;;;-142.57;61.22;115900.28;6317241;22;20061;-83
2023/07/12 02:25:11;;;;;;;44.53;7.70;;;;;;;-142.57;61.28;115900.28;6290503;22;20013;-82
2023/07/12 02:27:38;;;;;;;49.00;8.85;;;;;;;-142.57;61.70;115900.28;6290637;22;20007;-84
2023/07/12 02:30:10;;;;;;;38.28;7.53;;;;;;;-142.57;62.82;115900.28;6316007;22;20026;-83
2023/07/12 02:32:35;;;;;;;32.50;7.13;;;;;;;-142.57;62.17;115900.28;6289274;22;20438;-84
2023/07/12 02:35:01;;;;;;;45.08;8.38;;;;;;;-142.57;62.81;115900.28;6289743;22;20010;-84
2023/07/12 02:37:27;;;;;;;36.35;8.45;;;;;;;-142.57;62.34;115900.28;6318788;22;20018;-83
2023/07/12 02:39:53;;;;;;;35.47;7.97;;;;;;;-142.57;62.45;115900.28;6316919;22;20007;-82
2023/07/12 02:42:18;;;;;;;46.15;8.10;;;;;;;-142.57;61.63;115900.28;6320468;22;20011;-83
2023/07/12 02:44:44;;;;;;;39.60;6.85;;;;;;;-142.57;62.83;115900.28;6303903;22;20012;-80
2023/07/12 02:47:11;;;;;;;54.22;8.18;;;;;;;-142.57;64.14;115900.28;6330383;22;19995;-81
2023/07/12 02:49:37;;;;;;;39.20;8.60;;;;;;;-142.57;64.53;115900.28;6319139;22;20007;-82
2023/07/12 02:52:04;;;;;;;38.35;7.53;;;;;;;-142.57;63.77;115900.28;6316875;22;20099;-82
2023/07/12 02:54:31;;;;;;;43.50;8.48;;;;;;;-142.57;63.25;115900.28;6316255;22;20019;-84
2023/07/12 02:56:57;;;;;;;48.53;7.95;;;;;;;-142.57;63.72;115900.28;6313824;22;20082;-82
2023/07/12 02:59:22;;;;;;;35.38;7.95;;;;;;;-142.57;63.68;115900.28;6281429;22;20543;-83
2023/07/12 03:01:48;;;;;;;45.63;7.60;;;;;;;-142.57;63.23;115900.28;6308990;22;20026;-83
2023/07/12 03:04:14;;;;;;;34.47;7.88;;;;;;;-142.57;62.76;115900.28;6285588;22;20129;-83
2023/07/12 03:06:39;;;;;;;40.97;8.07;;;;;;;-142.57;63.16;115900.28;6316890;22;20016;-82
2023/07/12 03:09:06;;;;;;;37.50;8.10;;;;;;;-142.57;64.41;115900.28;6287257;22;20022;-83
2023/07/12 03:11:32;;;;;;;38.10;8.10;;;;;;;-142.57;65.94;115900.28;6308085;22;19995;-85
2023/07/12 03:13:58;;;;;;;30.88;8.98;;;;;;;-142.57;69.24;115900.28;6317257;22;20080;-82
2023/07/12 03:16:23;;;;;;;27.85;8.60;;;;;;;-142.57;71.30;115900.28;6320124;22;20015;-84
2023/07/12 03:18:50;;;;;;;36.13;9.88;;;;;;;-142.57;72.05;115900.28;6318862;22;20026;-83
2023/07/12 03:21:15;;;;;;;34.90;9.45;;;;;;;-142.57;70.92;115900.28;6309868;22;20008;-83
2023/07/12 03:23:42;;;;;;;43.85;8.80;;;;;;;-142.57;66.23;115900.28;6309509;22;20081;-84
2023/07/12 03:26:08;;;;;;;40.58;7.97;;;;;;;-142.57;66.24;115900.28;6308850;22;20065;-82
2023/07/12 03:28:36;;;;;;;36.55;7.70;;;;;;;-142.57;65.37;115900.28;6309037;22;20086;-83
2023/07/12 03:31:15;;;;;;;45.05;8.38;;;;;;;-142.57;63.75;115900.28;6281622;22;20037;-82
2023/07/12 03:33:42;;;;;;;46.28;7.68;;;;;;;-142.57;63.29;115900.28;6308840;22;20007;-83
2023/07/12 03:36:09;;;;;;;40.95;7.57;;;;;;;-142.57;63.10;115900.28;6308611;22;20003;-83
2023/07/12 03:38:35;;;;;;;40.08;6.65;;;;;;;-142.57;64.08;115900.28;6308189;22;20137;-84
2023/07/12 03:41:03;;;;;;;40.40;7.25;;;;;;;-142.57;65.64;115900.28;6281504;22;20018;-84
2023/07/12 03:43:30;;;;;;;41.83;7.72;;;;;;;-142.57;67.06;115900.28;6308298;22;20018;-85
2023/07/12 03:45:56;;;;;;;39.15;8.13;;;;;;;-142.57;67.94;115900.28;6310044;22;20088;-82
2023/07/12 03:48:23;;;;;;;48.63;8.88;;;;;;;-142.57;68.78;115900.28;6309537;22;20035;-85
2023/07/12 03:50:50;;;;;;;32.17;8.20;;;;;;;-142.57;71.90;115900.28;6308712;22;20011;-83
2023/07/12 03:53:19;;;;;;;38.65;8.70;;;;;;;-142.57;75.13;115900.28;6308361;22;20003;-82
2023/07/12 03:55:46;;;;;;;38.47;9.40;;;;;;;-142.57;75.83;115900.28;6309493;22;20086;-85
2023/07/12 03:58:15;;;;;;;30.42;8.60;;;;;;;-142.57;77.93;115900.28;6281513;22;20098;-84
2023/07/12 04:00:42;;;;;;;37.30;8.80;;;;;;;-142.57;79.27;115900.28;6289037;22;20411;-84
2023/07/12 04:03:08;;;;;;;38.70;9.18;;;;;;;-142.57;80.44;115900.28;6309027;22;20011;-82
2023/07/12 04:05:38;;;;;;;32.95;9.60;;;;;;;-142.57;82.76;115900.28;6280917;22;20311;-85
2023/07/12 04:08:04;;;;;;;34.75;10.15;;;;;;;-142.57;85.36;115900.28;6308667;22;20015;-83
2023/07/12 04:10:31;;;;;;;32.75;8.95;;;;;;;-142.57;85.83;115900.28;6280754;22;20018;-82
2023/07/12 04:12:57;;;;;;;28.33;8.50;;;;;;;-142.57;86.43;115900.28;6308194;22;19999;-84
2023/07/12 04:15:23;;;;;;;37.90;10.40;;;;;;;-142.57;88.16;115900.28;6280274;22;20061;-83
2023/07/12 04:17:48;;;;;;;27.20;10.02;;;;;;;-142.57;92.62;115900.28;6308143;22;20014;-82
2023/07/12 04:20:17;;;;;;;33.95;10.82;;;;;;;-142.57;95.22;115900.28;6308113;22;20007;-83
2023/07/12 04:22:42;;;;;;;34.75;11.10;;;;;;;-142.57;97.51;115900.28;6281274;22;20335;-84
2023/07/12 04:25:09;;;;;;;34.03;11.18;;;;;;;-142.57;98.47;115900.28;6307564;22;20003;-85
2023/07/12 04:27:37;;;;;;;36.28;11.88;;;;;;;-142.57;100.00;115900.28;6309732;22;20007;-85
2023/07/12 04:30:04;;;;;;;30.13;10.98;;;;;;;-142.57;100.00;115900.28;6308537;22;20081;-85
2023/07/12 04:32:30;;;;;;;28.70;10.63;;;;;;;-142.57;100.00;115900.28;6283093;22;20035;-83
2023/07/12 04:34:55;;;;;;;30.30;10.48;;;;;;;-142.57;100.00;115900.28;6310017;22;20018;-83
2023/07/12 04:37:21;;;;;;;39.28;10.88;;;;;;;-142.57;100.00;115900.28;6310386;22;20030;-84
2023/07/12 04:39:47;;;;;;;27.20;10.10;;;;;;;-142.57;100.00;115900.28;6310722;22;20007;-83
2023/07/12 04:42:12;;;;;;;35.20;10.07;;;;;;;-142.57;100.00;115900.28;6311002;22;20448;-83
2023/07/12 04:44:38;;;;;;;26.88;10.23;;;;;;;-142.57;99.03;115900.28;6311200;22;20007;-86
2023/07/12 04:47:05;;;;;;;26.65;9.05;;;;;;;-142.57;98.93;115900.28;6311976;22;19999;-83
2023/07/12 04:49:30;;;;;;;24.23;8.38;;;;;;;-142.57;98.31;115900.28;6317388;22;20014;-82
2023/07/12 04:51:57;;;;;;;42.00;8.38;;;;;;;-142.57;96.15;115900.28;6323986;22;20423;-84
2023/07/12 04:54:25;;;;;;;30.73;8.45;;;;;;;-142.57;95.19;115900.28;6295808;22;20015;-85
2023/07/12 04:56:53;;;;;;;44.50;8.32;;;;;;;-142.57;92.50;115900.28;6315132;22;20011;-85
2023/07/12 04:59:19;;;;;;;32.45;8.05;;;;;;;-142.57;89.77;115900.28;6284790;22;20022;-85
2023/07/12 05:01:45;;;;;;;26.58;7.40;;;;;;;-142.57;87.55;115900.28;6313307;22;20045;-84
2023/07/12 05:04:13;;;;;;;39.67;6.80;;;;;;;-142.57;84.32;115900.28;6313955;22;20439;-85
2023/07/12 05:06:38;;;;;;;25.67;7.10;;;;;;;-142.57;79.30;115900.28;6312611;22;20011;-84
2023/07/12 05:09:05;;;;;;;34.70;7.20;;;;;;;-142.57;76.03;115900.28;6310982;22;20017;-86
2023/07/12 05:11:31;;;;;;;29.05;6.70;;;;;;;-142.57;75.17;115900.28;6310375;22;20031;-84
2023/07/12 05:13:56;;;;;;;35.67;7.72;;;;;;;-142.57;74.21;115900.28;6311122;22;20026;-85
2023/07/12 05:16:22;;;;;;;37.03;7.43;;;;;;;-142.57;74.42;115900.28;6311365;22;20011;-85
2023/07/12 05:18:48;;;;;;;39.42;7.60;;;;;;;-142.57;71.88;115900.28;6311397;22;20007;-87
2023/07/12 05:21:14;;;;;;;48.50;8.20;;;;;;;-142.57;73.01;115900.28;6311055;22;20508;-86
2023/07/12 05:23:39;;;;;;;43.08;6.70;;;;;;;-142.57;71.42;115900.28;6310061;22;20030;-85
2023/07/12 05:26:06;;;;;;;39.53;6.95;;;;;;;-142.57;70.71;115900.28;6310820;22;20057;-85
2023/07/12 05:28:32;;;;;;;26.30;6.75;;;;;;;-142.57;70.24;115900.28;6310703;22;20007;-86
2023/07/12 05:30:57;;;;;;;41.40;8.13;;;;;;;-142.57;70.60;115900.28;6282756;22;20015;-85
2023/07/12 05:33:23;;;;;;;45.33;7.53;;;;;;;-142.57;69.70;115900.28;6310097;22;20319;-86
2023/07/12 05:35:49;;;;;;;54.38;6.85;;;;;;;-142.57;68.60;115900.28;6282853;22;20015;-83
2023/07/12 05:38:15;;;;;;;43.30;6.95;;;;;;;-142.57;67.65;115900.28;6282761;22;20017;-84
2023/07/12 05:40:41;;;;;;;40.85;7.32;;;;;;;-142.57;68.15;115900.28;6310073;22;20031;-84
2023/07/12 05:43:06;;;;;;;40.63;7.05;;;;;;;-142.57;65.50;115900.28;6282317;22;20346;-85
2023/07/12 05:45:32;;;;;;;48.15;7.22;;;;;;;-142.57;65.29;115900.28;6309643;22;20018;-87
2023/07/12 05:47:57;;;;;;;36.67;6.75;;;;;;;-142.57;63.52;115900.28;6310325;22;20037;-85
2023/07/12 05:50:23;;;;;;;37.83;6.43;;;;;;;-142.57;63.06;115900.28;6310185;22;20014;-85
2023/07/12 05:52:48;;;;;;;40.58;6.40;;;;;;;-142.57;63.29;115900.28;6310206;22;20018;-86
2023/07/12 05:55:17;;;;;;;44.22;6.28;;;;;;;-142.57;62.56;115900.28;6310766;22;20023;-88
2023/07/12 05:57:44;;;;;;;40.50;7.57;;;;;;;-142.57;62.38;115900.28;6314890;22;20290;-89
2023/07/12 06:00:17;;;;;;;35.65;6.95;;;;;;;-142.57;61.59;115900.28;6320699;22;20003;-90
2023/07/12 06:05:24;;;;;;;42.75;6.40;;;;;;;-142.57;61.23;115900.28;6319975;22;20026;-91
2023/07/12 06:08:13;;;;;;;56.17;6.47;;;;;;;-142.57;58.54;115900.28;6322822;22;20042;-91
2023/07/12 06:10:45;;;;;;;40.75;6.13;;;;;;;-142.57;57.78;115900.28;6295675;22;20512;-90
2023/07/12 06:13:47;;;;;;;33.00;5.82;;;;;;;-142.57;56.51;115900.28;6299688;22;20012;-88
2023/07/12 06:16:13;;;;;;;30.33;5.18;;;;;;;-142.57;55.81;115900.28;6319991;22;20019;-89
2023/07/12 06:18:39;;;;;;;53.35;6.22;;;;;;;-142.57;55.04;115900.28;6321508;22;20007;-90
2023/07/12 06:21:19;;;;;;;31.05;6.55;;;;;;;-142.57;52.66;115900.28;6308201;22;20312;-90
2023/07/12 06:23:45;;;;;;;32.83;5.88;;;;;;;-142.57;50.43;115900.28;6316813;22;20037;-91
2023/07/12 06:26:11;;;;;;;40.13;5.93;;;;;;;-142.57;48.67;115900.28;6264071;22;20019;-90
2023/07/12 06:28:36;;;;;;;21.33;5.47;;;;;;;-142.57;45.57;115900.28;6290142;22;20019;-91
2023/07/12 06:31:06;;;;;;;30.75;5.45;;;;;;;-142.57;45.72;115900.28;6316726;22;20026;-93
2023/07/12 06:33:32;;;;;;;33.00;5.85;;;;;;;-142.57;45.15;115900.28;6316738;22;20015;-93
2023/07/12 06:35:58;;;;;;;22.40;5.05;;;;;;;-142.57;44.65;115900.28;6316584;22;20015;-95
2023/07/12 06:38:24;;;;;;;32.38;5.30;;;;;;;-142.57;42.52;115900.28;6317925;22;20014;-93
2023/07/12 06:40:54;;;;;;;39.30;5.63;;;;;;;-142.57;43.34;115900.28;6285627;22;20039;-91
2023/07/12 06:43:23;;;;;;;25.13;5.80;;;;;;;-142.57;43.44;115900.28;6285575;22;20012;-90
2023/07/12 06:45:55;;;;;;;30.55;5.50;;;;;;;-142.57;43.21;115900.28;6316856;22;20370;-89
2023/07/12 06:48:21;;;;;;;35.63;7.05;;;;;;;-142.57;41.29;115900.28;6289310;22;20007;-87
2023/07/12 06:50:47;;;;;;;28.33;5.35;;;;;;;-142.57;40.81;115900.28;6313306;22;20003;-89
2023/07/12 06:53:14;;;;;;;36.03;5.93;;;;;;;-142.57;42.18;115900.28;6313603;22;20018;-91
2023/07/12 06:55:44;;;;;;;34.78;5.60;;;;;;;-142.57;40.26;115900.28;6287374;22;20027;-88
2023/07/12 06:58:10;;;;;;;30.00;5.27;;;;;;;-142.57;41.08;115900.28;6286956;22;20057;-88
2023/07/12 07:00:41;;;;;;;32.67;5.70;;;;;;;-142.57;40.92;115900.28;6285718;22;20007;-89
2023/07/12 07:03:09;;;;;;;35.92;4.88;;;;;;;-142.57;38.79;115900.28;6313017;22;20050;-89
2023/07/12 07:05:40;;;;;;;33.28;5.22;;;;;;;-142.57;39.90;115900.28;6286267;22;20117;-90
2023/07/12 07:08:07;;;;;;;45.27;6.13;;;;;;;-142.57;40.31;115900.28;6286288;22;20342;-90
2023/07/12 07:10:35;;;;;;;33.53;4.72;;;;;;;-142.57;39.73;115900.28;6317570;22;20086;-89
2023/07/12 07:13:01;;;;;;;24.83;5.07;;;;;;;-142.57;38.80;115900.28;6315744;22;20283;-89
2023/07/12 07:15:29;;;;;;;29.75;5.30;;;;;;;-142.57;37.85;115900.28;6290407;22;20014;-88
2023/07/12 07:17:58;;;;;;;31.77;5.75;;;;;;;-142.57;37.23;115900.28;6286496;22;20449;-89
2023/07/12 07:20:26;;;;;;;30.75;5.47;;;;;;;-142.57;37.63;115900.28;6288588;22;20008;-88
2023/07/12 07:22:55;;;;;;;27.17;5.07;;;;;;;-142.57;38.17;115900.28;6312976;22;20029;-90
2023/07/12 07:25:25;;;;;;;29.23;5.15;;;;;;;-142.57;37.09;115900.28;6290864;22;20011;-91
2023/07/12 07:27:56;;;;;;;27.27;5.93;;;;;;;-142.57;34.53;115900.28;6290257;22;20006;-90
2023/07/12 07:30:28;;;;;;;22.35;5.55;;;;;;;-142.57;35.02;115900.28;6315625;22;20011;-90
2023/07/12 07:32:57;;;;;;;39.38;5.35;;;;;;;-142.57;35.64;115900.28;6312501;22;20073;-90
2023/07/12 07:35:25;;;;;;;35.58;6.25;;;;;;;-142.57;40.67;115900.28;6305213;22;20041;-91
2023/07/12 07:37:51;;;;;;;19.50;6.43;;;;;;;-142.57;42.37;115900.28;6288263;22;20006;-90
2023/07/12 07:40:17;;;;;;;30.58;7.55;;;;;;;-142.57;43.04;115900.28;6316231;22;20460;-93
2023/07/12 07:42:45;;;;;;;33.55;8.45;;;;;;;-142.57;44.57;115900.28;6320583;22;20334;-94
2023/07/12 07:45:11;;;;;;;35.25;9.00;;;;;;;-142.57;46.56;115900.28;6294164;22;20022;-93
2023/07/12 07:47:42;;;;;;;25.60;7.85;;;;;;;-142.57;48.20;115900.28;6320042;22;20377;-90
2023/07/12 07:50:32;;;;;;;25.02;7.53;;;;;;;-142.57;47.49;115900.28;6270154;22;20035;-93
2023/07/12 07:55:51;;;;;;;26.92;9.43;;;;;;;-142.57;49.99;115900.28;6295954;22;20030;-90
2023/07/12 07:58:22;;;;;;;33.03;10.07;;;;;;;-142.57;53.50;115900.28;6263800;22;20016;-93
2023/07/12 08:01:12;;;;;;;19.85;11.20;;;;;;;-142.57;58.37;115900.28;6274498;22;20091;-92
2023/07/12 08:04:11;;;;;;;29.85;12.00;;;;;;;-142.57;62.15;115900.28;6280692;22;20064;-89
2023/07/12 08:06:42;;;;;;;27.40;11.32;;;;;;;-142.57;63.78;115900.28;6296752;22;20006;-90
2023/07/12 08:09:08;;;;;;;33.35;12.45;;;;;;;-142.57;64.07;115900.28;6304016;22;20000;-89
2023/07/12 08:11:43;;;;;;;25.50;12.32;;;;;;;-142.57;65.71;115900.28;6275702;22;20008;-86
2023/07/12 08:14:12;;;;;;;26.88;11.93;;;;;;;-142.57;63.22;115900.28;6270121;22;19999;-88
2023/07/12 08:16:41;;;;;;;28.40;12.90;;;;;;;-142.57;62.72;115900.28;6302557;22;20029;-88
2023/07/12 08:19:13;;;;;;;25.13;12.30;;;;;;;-142.57;62.90;115900.28;6302578;22;20023;-86
2023/07/12 08:21:38;;;;;;;23.00;12.88;;;;;;;-142.57;64.33;115900.28;6298500;22;20008;-88
2023/07/12 08:24:13;;;;;;;21.58;10.80;;;;;;;-142.57;60.99;115900.28;6273667;22;20003;-91
2023/07/12 08:26:38;;;;;;;21.60;9.55;;;;;;;-142.57;60.95;115900.28;6242734;22;20007;-91
2023/07/12 08:29:04;;;;;;;28.63;11.23;;;;;;;-142.57;57.96;115900.28;6265273;22;20015;-89
2023/07/12 08:31:38;;;;;;;22.33;9.60;;;;;;;-142.57;59.88;115900.28;6260142;22;20015;-87
2023/07/12 08:34:10;;;;;;;21.95;9.50;;;;;;;-142.57;61.93;115900.28;6296884;22;20019;-89
2023/07/12 08:36:36;;;;;;;27.63;9.27;;;;;;;-142.57;63.83;115900.28;6295571;22;20007;-87
2023/07/12 08:39:02;;;;;;;23.00;9.32;;;;;;;-142.57;63.60;115900.28;6292443;22;19996;-90
2023/07/12 08:41:29;;;;;;;23.95;9.13;;;;;;;-142.57;60.82;115900.28;6286266;22;20485;-89
2023/07/12 08:43:56;;;;;;;21.90;8.93;;;;;;;-142.57;60.87;115900.28;6232610;22;20362;-92
2023/07/12 08:46:25;;;;;;;26.90;8.65;;;;;;;-142.57;60.92;115900.28;6260867;22;20011;-89
2023/07/12 08:48:54;;;;;;;25.20;9.25;;;;;;;-142.57;59.69;115900.28;6254052;22;20006;-90
2023/07/12 08:51:28;;;;;;;17.00;7.72;;;;;;;-142.57;58.60;115900.28;6256394;22;20015;-90
2023/07/12 08:53:57;;;;;;;22.35;8.55;;;;;;;-142.57;60.80;115900.28;6286452;22;20015;-87
2023/07/12 08:56:32;;;;;;;16.27;7.88;;;;;;;-142.57;59.23;115900.28;6287988;22;20054;-88
2023/07/12 08:59:11;;;;;;;19.52;7.63;;;;;;;-142.57;59.02;115900.28;6284942;22;20042;-87
2023/07/12 09:01:47;;;;;;;23.15;8.30;;;;;;;-142.57;58.47;115900.28;6287465;22;20059;-92
2023/07/12 09:04:27;;;;;;;19.30;7.70;;;;;;;-142.57;58.18;115900.28;6261054;22;20042;-89
2023/07/12 09:06:56;;;;;;;21.02;8.02;;;;;;;-142.57;56.64;115900.28;6288001;22;20082;-90
2023/07/12 09:09:23;;;;;;;20.60;8.00;;;;;;;-142.57;55.71;115900.28;6283227;22;19999;-91
2023/07/12 09:11:52;;;;;;;30.48;8.35;;;;;;;-142.57;54.61;115900.28;6284929;22;20038;-88
2023/07/12 09:14:21;;;;;;;23.70;9.40;;;;;;;-142.57;58.44;115900.28;6285805;22;20008;-91
2023/07/12 09:16:54;;;;;;;17.63;7.65;;;;;;;-142.57;61.47;115900.28;6262936;22;20015;-90
2023/07/12 09:19:30;;;;;;;23.65;8.07;;;;;;;-142.57;60.55;115900.28;6267940;22;20012;-90
2023/07/12 09:22:09;;;;;;;21.38;8.05;;;;;;;-142.57;61.22;115900.28;6232514;22;20037;-88
2023/07/12 09:24:50;;;;;;;20.40;7.38;;;;;;;-142.57;62.55;115900.28;6292975;22;20012;-89
2023/07/12 09:27:26;;;;;;;24.88;7.60;;;;;;;-142.57;63.28;115900.28;6269253;22;20039;-89
2023/07/12 09:30:09;;;;;;;25.85;8.15;;;;;;;-142.57;63.55;115900.28;6294382;22;20007;-90
2023/07/12 09:33:26;;;;;;;17.45;7.43;;;;;;;-142.57;63.71;115900.28;6268014;22;20031;-90
2023/07/12 09:35:52;;;;;;;20.48;8.38;;;;;;;-142.57;63.58;115900.28;6285642;22;20090;-92
2023/07/12 09:38:23;;;;;;;25.63;8.65;;;;;;;-142.57;64.13;115900.28;6265686;22;20012;-87
2023/07/12 09:41:08;;;;;;;16.67;7.43;;;;;;;-142.57;63.98;115900.28;6289620;22;20578;-87
2023/07/12 09:43:48;;;;;;;30.75;7.93;;;;;;;-142.57;63.87;115900.28;6287585;22;20016;-89
2023/07/12 09:46:29;;;;;;;30.95;7.95;;;;;;;-142.57;63.65;115900.28;6289590;22;20091;-90
2023/07/12 09:49:24;;;;;;;20.02;7.65;;;;;;;-142.57;63.14;115900.28;6261454;22;20012;-88
2023/07/12 09:52:05;;;;;;;18.53;7.20;;;;;;;-142.57;63.50;115900.28;6294247;22;20044;-89
2023/07/12 09:54:44;;;;;;;23.85;7.20;;;;;;;-142.57;62.54;115900.28;6258871;23;20012;-85
2023/07/12 09:57:37;;;;;;;23.50;7.45;;;;;;;-142.57;61.78;115900.28;6266875;22;20020;-87
2023/07/12 10:00:39;;;;;;;20.67;7.22;;;;;;;-142.57;62.16;115900.28;6260720;22;20020;-89
2023/07/12 10:03:33;;;;;;;14.82;7.53;;;;;;;-142.57;61.93;115900.28;6161058;22;20016;-86
2023/07/12 10:06:14;;;;;;;20.98;7.75;;;;;;;-142.57;61.77;115900.28;6120055;23;20017;-86
2023/07/12 10:08:57;;;;;;;14.25;6.72;;;;;;;-142.57;62.32;115900.28;6168983;23;20105;-86
2023/07/12 10:11:48;;;;;;;17.60;7.32;;;;;;;-142.57;60.26;115900.28;6228879;23;20024;-87
2023/07/12 10:14:22;;;;;;;17.55;7.13;;;;;;;-142.57;57.63;115900.28;6263848;22;20012;-87
2023/07/12 10:17:37;;;;;;;21.27;7.95;;;;;;;-142.57;58.11;115900.28;6253578;23;20069;-87
2023/07/12 10:20:03;;;;;;;20.75;7.60;;;;;;;-142.57;57.07;115900.28;6260916;23;20007;-90
2023/07/12 10:22:38;;;;;;;18.33;6.95;;;;;;;-142.57;55.43;115900.28;6262166;22;20331;-87
2023/07/12 10:25:38;;;;;;;25.58;6.95;;;;;;;-142.57;52.98;115900.28;6263496;22;20015;-88
2023/07/12 10:29:01;;;;;;;19.05;6.63;;;;;;;-142.57;49.70;115900.28;6254517;22;20016;-86
2023/07/12 10:32:04;;;;;;;20.80;7.18;;;;;;;-142.57;48.79;115900.28;6132912;23;20020;-87
2023/07/12 10:34:49;;;;;;;25.02;6.35;;;;;;;-142.57;45.72;115900.28;6044236;23;20019;-87
2023/07/12 10:37:32;;;;;;;17.63;6.47;;;;;;;-142.57;43.68;115900.28;6044987;23;20030;-87
2023/07/12 10:40:01;;;;;;;19.05;6.68;;;;;;;-142.57;44.59;115900.28;6042073;23;20035;-87
2023/07/12 10:42:42;;;;;;;21.23;6.65;;;;;;;-142.57;45.18;115900.28;6044306;23;20475;-87
2023/07/12 10:45:25;;;;;;;28.83;7.57;;;;;;;-142.57;45.92;115900.28;6099323;23;20014;-86
2023/07/12 10:47:54;;;;;;;17.20;6.30;;;;;;;-142.57;45.31;115900.28;6134328;23;20014;-86
2023/07/12 10:50:34;;;;;;;24.30;6.25;;;;;;;-142.57;45.72;115900.28;6107252;23;20017;-90
2023/07/12 10:53:23;;;;;;;23.50;6.57;;;;;;;-142.57;43.84;115900.28;6130659;23;20477;-84
2023/07/12 10:55:54;;;;;;;24.20;6.33;;;;;;;-142.57;43.87;115900.28;6100651;23;20049;-89
2023/07/12 10:58:20;;;;;;;21.95;5.97;;;;;;;-142.57;43.53;115900.28;6101162;23;20084;-87
2023/07/12 11:00:49;;;;;;;27.35;6.22;;;;;;;-142.57;44.34;115900.28;6131782;23;20062;-89
2023/07/12 11:03:20;;;;;;;20.42;6.20;;;;;;;-142.57;44.49;115900.28;6247440;22;20534;-87
2023/07/12 11:05:54;;;;;;;18.00;5.60;;;;;;;-142.57;44.68;115900.28;6245836;23;20316;-85
2023/07/12 11:08:32;;;;;;;29.00;6.22;;;;;;;-142.57;44.90;115900.28;6248068;22;20036;-89
2023/07/12 11:11:09;;;;;;;20.23;6.13;;;;;;;-142.57;45.37;115900.28;6252776;23;20016;-90
2023/07/12 11:13:44;;;;;;;28.45;6.55;;;;;;;-142.57;45.28;115900.28;6248545;23;20489;-85
2023/07/12 11:16:19;;;;;;;20.88;6.28;;;;;;;-142.57;45.37;115900.28;6248772;23;20062;-88
2023/07/12 11:18:49;;;;;;;20.20;6.38;;;;;;;-142.57;45.32;115900.28;6251200;23;20016;-87
2023/07/12 11:21:41;;;;;;;25.15;6.43;;;;;;;-142.57;45.28;115900.28;6251593;22;20012;-89